sensor_id;sensor_type;location;lat;lon;timestamp;temperature;humidity
22418;DHT22;11376;50.932;4.442;2023-02-08T00:01:14;-0.10;99.90
22418;DHT22;11376;50.932;4.442;2023-02-08T00:03:40;0.00;99.90
22418;DHT22;11376;50.932;4.442;2023-02-08T00:06:06;-0.30;99.90
22418;DHT22;11376;50.932;4.442;2023-02-08T00:08:33;-0.40;99.90
22418;DHT22;11376;50.932;4.442;2023-02-08T00:10:59;-0.50;99.90
22418;DHT22;11376;50.932;4.442;2023-02-08T00:13:24;-0.40;99.90
22418;DHT22;11376;50.932;4.442;2023-02-08T00:15:52;-0.40;99.90
22418;DHT22;11376;50.932;4.442;2023-02-08T00:18:18;-0.20;99.90
22418;DHT22;11376;50.932;4.442;2023-02-08T00:20:44;-0.10;99.90
22418;DHT22;11376;50.932;4.442;2023-02-08T00:23:11;-0.20;99.90
22418;DHT22;11376;50.932;4.442;2023-02-08T00:25:37;-0.10;99.90
22418;DHT22;11376;50.932;4.442;2023-02-08T00:28:03;-0.30;99.90
22418;DHT22;11376;50.932;4.442;2023-02-08T00:30:29;-0.40;99.90
22418;DHT22;11376;50.932;4.442;2023-02-08T00:32:54;-0.40;99.90
22418;DHT22;11376;50.932;4.442;2023-02-08T00:35:20;-0.40;99.90
22418;DHT22;11376;50.932;4.442;2023-02-08T00:37:46;-0.50;99.90
22418;DHT22;11376;50.932;4.442;2023-02-08T00:40:11;-0.50;99.90
22418;DHT22;11376;50.932;4.442;2023-02-08T00:42:37;-0.60;99.90
22418;DHT22;11376;50.932;4.442;2023-02-08T00:45:03;-0.70;99.90
22418;DHT22;11376;50.932;4.442;2023-02-08T00:47:29;-0.80;99.90
22418;DHT22;11376;50.932;4.442;2023-02-08T00:49:55;-0.80;99.90
22418;DHT22;11376;50.932;4.442;2023-02-08T00:52:20;-0.80;99.90
22418;DHT22;11376;50.932;4.442;2023-02-08T00:54:46;-0.80;99.90
22418;DHT22;11376;50.932;4.442;2023-02-08T00:57:12;-0.70;99.90
22418;DHT22;11376;50.932;4.442;2023-02-08T00:59:38;-0.70;99.90
22418;DHT22;11376;50.932;4.442;2023-02-08T01:02:04;-0.70;99.90
22418;DHT22;11376;50.932;4.442;2023-02-08T01:04:29;-0.70;99.90
22418;DHT22;11376;50.932;4.442;2023-02-08T01:06:55;-0.80;99.90
22418;DHT22;11376;50.932;4.442;2023-02-08T01:09:21;-0.70;99.90
22418;DHT22;11376;50.932;4.442;2023-02-08T01:11:47;-0.70;99.90
22418;DHT22;11376;50.932;4.442;2023-02-08T01:14:12;-0.70;99.90
22418;DHT22;11376;50.932;4.442;2023-02-08T01:16:38;-0.70;99.90
22418;DHT22;11376;50.932;4.442;2023-02-08T01:19:04;-0.70;99.90
22418;DHT22;11376;50.932;4.442;2023-02-08T01:21:36;-0.80;99.90
22418;DHT22;11376;50.932;4.442;2023-02-08T01:24:03;-0.80;99.90
22418;DHT22;11376;50.932;4.442;2023-02-08T01:26:28;-0.80;99.90
22418;DHT22;11376;50.932;4.442;2023-02-08T01:28:55;-0.80;99.90
22418;DHT22;11376;50.932;4.442;2023-02-08T01:31:24;-0.80;99.90
22418;DHT22;11376;50.932;4.442;2023-02-08T01:33:50;-1.10;99.90
22418;DHT22;11376;50.932;4.442;2023-02-08T01:36:16;-1.10;99.90
22418;DHT22;11376;50.932;4.442;2023-02-08T01:38:43;-1.10;99.90
22418;DHT22;11376;50.932;4.442;2023-02-08T01:41:14;-1.00;99.90
22418;DHT22;11376;50.932;4.442;2023-02-08T01:46:35;-0.90;99.90
22418;DHT22;11376;50.932;4.442;2023-02-08T01:49:12;-0.90;99.90
22418;DHT22;11376;50.932;4.442;2023-02-08T01:52:00;-1.00;99.90
22418;DHT22;11376;50.932;4.442;2023-02-08T01:54:29;-1.00;99.90
22418;DHT22;11376;50.932;4.442;2023-02-08T01:56:56;-1.00;99.90
22418;DHT22;11376;50.932;4.442;2023-02-08T01:59:31;-0.90;99.90
22418;DHT22;11376;50.932;4.442;2023-02-08T02:01:58;-0.90;99.90
22418;DHT22;11376;50.932;4.442;2023-02-08T02:04:25;-0.90;99.90
22418;DHT22;11376;50.932;4.442;2023-02-08T02:06:54;-1.10;99.90
22418;DHT22;11376;50.932;4.442;2023-02-08T02:09:45;-1.00;99.90
22418;DHT22;11376;50.932;4.442;2023-02-08T02:12:12;-1.20;99.90
22418;DHT22;11376;50.932;4.442;2023-02-08T02:14:38;-1.20;99.90
22418;DHT22;11376;50.932;4.442;2023-02-08T02:17:04;-1.20;99.90
22418;DHT22;11376;50.932;4.442;2023-02-08T02:22:13;-1.10;99.90
22418;DHT22;11376;50.932;4.442;2023-02-08T02:25:19;-1.20;99.90
22418;DHT22;11376;50.932;4.442;2023-02-08T02:28:26;-1.10;99.90
22418;DHT22;11376;50.932;4.442;2023-02-08T02:47:36;-0.90;99.90
22418;DHT22;11376;50.932;4.442;2023-02-08T02:50:28;-0.80;99.90
22418;DHT22;11376;50.932;4.442;2023-02-08T02:53:21;-0.90;99.90
22418;DHT22;11376;50.932;4.442;2023-02-08T02:55:57;-1.10;99.90
22418;DHT22;11376;50.932;4.442;2023-02-08T02:58:25;-1.30;99.90
22418;DHT22;11376;50.932;4.442;2023-02-08T03:00:53;-1.30;99.90
22418;DHT22;11376;50.932;4.442;2023-02-08T03:03:23;-1.40;99.90
22418;DHT22;11376;50.932;4.442;2023-02-08T03:05:51;-1.40;99.90
22418;DHT22;11376;50.932;4.442;2023-02-08T03:08:34;-1.40;99.90
22418;DHT22;11376;50.932;4.442;2023-02-08T03:19:33;-1.30;99.90
22418;DHT22;11376;50.932;4.442;2023-02-08T03:25:06;-1.30;99.90
22418;DHT22;11376;50.932;4.442;2023-02-08T03:27:39;-1.40;99.90
22418;DHT22;11376;50.932;4.442;2023-02-08T03:30:14;-1.40;99.90
22418;DHT22;11376;50.932;4.442;2023-02-08T03:33:05;-1.40;99.90
22418;DHT22;11376;50.932;4.442;2023-02-08T03:35:43;-1.30;99.90
22418;DHT22;11376;50.932;4.442;2023-02-08T03:38:18;-1.30;99.90
22418;DHT22;11376;50.932;4.442;2023-02-08T03:40:47;-1.30;99.90
22418;DHT22;11376;50.932;4.442;2023-02-08T03:43:17;-1.40;99.90
22418;DHT22;11376;50.932;4.442;2023-02-08T03:45:49;-1.50;99.90
22418;DHT22;11376;50.932;4.442;2023-02-08T03:48:16;-1.50;99.90
22418;DHT22;11376;50.932;4.442;2023-02-08T03:50:48;-1.50;99.90
22418;DHT22;11376;50.932;4.442;2023-02-08T03:53:18;-1.40;99.90
22418;DHT22;11376;50.932;4.442;2023-02-08T03:55:46;-1.40;99.90
22418;DHT22;11376;50.932;4.442;2023-02-08T03:58:37;-1.40;99.90
22418;DHT22;11376;50.932;4.442;2023-02-08T04:01:11;-1.30;99.90
22418;DHT22;11376;50.932;4.442;2023-02-08T04:03:38;-1.40;99.90
22418;DHT22;11376;50.932;4.442;2023-02-08T04:06:06;-1.40;99.90
22418;DHT22;11376;50.932;4.442;2023-02-08T04:08:31;-1.40;99.90
22418;DHT22;11376;50.932;4.442;2023-02-08T04:10:57;-1.40;99.90
22418;DHT22;11376;50.932;4.442;2023-02-08T04:13:22;-1.40;99.90
22418;DHT22;11376;50.932;4.442;2023-02-08T04:15:48;-1.40;99.90
22418;DHT22;11376;50.932;4.442;2023-02-08T04:18:14;-1.80;99.90
22418;DHT22;11376;50.932;4.442;2023-02-08T04:20:40;-1.90;99.90
22418;DHT22;11376;50.932;4.442;2023-02-08T04:23:05;-1.70;99.90
22418;DHT22;11376;50.932;4.442;2023-02-08T04:25:31;-1.70;99.90
22418;DHT22;11376;50.932;4.442;2023-02-08T04:27:57;-1.90;99.90
22418;DHT22;11376;50.932;4.442;2023-02-08T04:30:22;-1.90;99.90
22418;DHT22;11376;50.932;4.442;2023-02-08T04:32:48;-1.90;99.90
22418;DHT22;11376;50.932;4.442;2023-02-08T04:35:13;-1.80;99.90
22418;DHT22;11376;50.932;4.442;2023-02-08T04:37:39;-1.80;99.90
22418;DHT22;11376;50.932;4.442;2023-02-08T04:40:04;-1.90;99.90
22418;DHT22;11376;50.932;4.442;2023-02-08T04:42:30;-1.90;99.90
22418;DHT22;11376;50.932;4.442;2023-02-08T04:44:56;-1.80;99.90
22418;DHT22;11376;50.932;4.442;2023-02-08T04:47:21;-1.80;99.90
22418;DHT22;11376;50.932;4.442;2023-02-08T04:49:47;-1.70;99.90
22418;DHT22;11376;50.932;4.442;2023-02-08T04:52:13;-1.80;99.90
22418;DHT22;11376;50.932;4.442;2023-02-08T04:54:38;-1.80;99.90
22418;DHT22;11376;50.932;4.442;2023-02-08T04:57:04;-1.80;99.90
22418;DHT22;11376;50.932;4.442;2023-02-08T04:59:29;-1.80;99.90
22418;DHT22;11376;50.932;4.442;2023-02-08T05:01:55;-1.80;99.90
22418;DHT22;11376;50.932;4.442;2023-02-08T05:04:20;-1.80;99.90
22418;DHT22;11376;50.932;4.442;2023-02-08T05:06:46;-1.70;99.90
22418;DHT22;11376;50.932;4.442;2023-02-08T05:09:12;-1.90;99.90
22418;DHT22;11376;50.932;4.442;2023-02-08T05:11:38;-2.00;99.90
22418;DHT22;11376;50.932;4.442;2023-02-08T05:14:04;-2.00;99.90
22418;DHT22;11376;50.932;4.442;2023-02-08T05:16:30;-2.20;99.90
22418;DHT22;11376;50.932;4.442;2023-02-08T05:18:56;-2.30;99.90
22418;DHT22;11376;50.932;4.442;2023-02-08T05:21:22;-2.30;99.90
22418;DHT22;11376;50.932;4.442;2023-02-08T05:23:50;-2.30;99.90
22418;DHT22;11376;50.932;4.442;2023-02-08T05:26:16;-2.20;99.90
22418;DHT22;11376;50.932;4.442;2023-02-08T05:28:42;-2.10;99.90
22418;DHT22;11376;50.932;4.442;2023-02-08T05:31:22;-2.00;99.90
22418;DHT22;11376;50.932;4.442;2023-02-08T05:33:49;-2.00;99.90
22418;DHT22;11376;50.932;4.442;2023-02-08T05:36:16;-2.00;99.90
22418;DHT22;11376;50.932;4.442;2023-02-08T05:38:42;-2.00;99.90
22418;DHT22;11376;50.932;4.442;2023-02-08T05:41:08;-1.90;99.90
22418;DHT22;11376;50.932;4.442;2023-02-08T05:43:34;-1.90;99.90
22418;DHT22;11376;50.932;4.442;2023-02-08T05:46:00;-1.80;99.90
22418;DHT22;11376;50.932;4.442;2023-02-08T05:48:26;-1.90;99.90
22418;DHT22;11376;50.932;4.442;2023-02-08T05:50:52;-1.80;99.90
22418;DHT22;11376;50.932;4.442;2023-02-08T05:53:17;-1.80;99.90
22418;DHT22;11376;50.932;4.442;2023-02-08T05:55:44;-1.80;99.90
22418;DHT22;11376;50.932;4.442;2023-02-08T05:58:11;-1.90;99.90
22418;DHT22;11376;50.932;4.442;2023-02-08T06:00:37;-2.00;99.90
22418;DHT22;11376;50.932;4.442;2023-02-08T06:03:02;-2.00;99.90
22418;DHT22;11376;50.932;4.442;2023-02-08T06:05:28;-2.00;99.90
22418;DHT22;11376;50.932;4.442;2023-02-08T06:07:53;-2.00;99.90
22418;DHT22;11376;50.932;4.442;2023-02-08T06:10:19;-2.00;99.90
22418;DHT22;11376;50.932;4.442;2023-02-08T06:12:44;-2.00;99.90
22418;DHT22;11376;50.932;4.442;2023-02-08T06:15:10;-1.90;99.90
22418;DHT22;11376;50.932;4.442;2023-02-08T06:17:36;-1.90;99.90
22418;DHT22;11376;50.932;4.442;2023-02-08T06:20:01;-1.90;99.90
22418;DHT22;11376;50.932;4.442;2023-02-08T06:22:27;-1.90;99.90
22418;DHT22;11376;50.932;4.442;2023-02-08T06:24:52;-1.90;99.90
22418;DHT22;11376;50.932;4.442;2023-02-08T06:27:18;-1.80;99.90
22418;DHT22;11376;50.932;4.442;2023-02-08T06:29:43;-1.70;99.90
22418;DHT22;11376;50.932;4.442;2023-02-08T06:32:09;-1.70;99.90
22418;DHT22;11376;50.932;4.442;2023-02-08T06:34:35;-1.60;99.90
22418;DHT22;11376;50.932;4.442;2023-02-08T06:37:01;-1.60;99.90
22418;DHT22;11376;50.932;4.442;2023-02-08T06:39:27;-1.60;99.90
22418;DHT22;11376;50.932;4.442;2023-02-08T06:41:54;-1.60;99.90
22418;DHT22;11376;50.932;4.442;2023-02-08T06:44:19;-1.70;99.90
22418;DHT22;11376;50.932;4.442;2023-02-08T06:46:45;-1.70;99.90
22418;DHT22;11376;50.932;4.442;2023-02-08T06:49:10;-1.70;99.90
22418;DHT22;11376;50.932;4.442;2023-02-08T06:51:36;-1.70;99.90
22418;DHT22;11376;50.932;4.442;2023-02-08T06:54:02;-1.70;99.90
22418;DHT22;11376;50.932;4.442;2023-02-08T06:56:27;-1.50;99.90
22418;DHT22;11376;50.932;4.442;2023-02-08T06:58:53;-1.50;99.90
22418;DHT22;11376;50.932;4.442;2023-02-08T07:01:20;-1.60;99.90
22418;DHT22;11376;50.932;4.442;2023-02-08T07:03:45;-1.70;99.90
22418;DHT22;11376;50.932;4.442;2023-02-08T07:06:15;-1.80;99.90
22418;DHT22;11376;50.932;4.442;2023-02-08T07:08:41;-1.80;99.90
22418;DHT22;11376;50.932;4.442;2023-02-08T07:11:12;-1.90;99.90
22418;DHT22;11376;50.932;4.442;2023-02-08T07:13:38;-1.90;99.90
22418;DHT22;11376;50.932;4.442;2023-02-08T07:16:05;-1.90;99.90
22418;DHT22;11376;50.932;4.442;2023-02-08T07:18:31;-1.90;99.90
22418;DHT22;11376;50.932;4.442;2023-02-08T07:20:57;-1.80;99.90
22418;DHT22;11376;50.932;4.442;2023-02-08T07:23:23;-1.70;99.90
22418;DHT22;11376;50.932;4.442;2023-02-08T07:25:59;-1.70;99.90
22418;DHT22;11376;50.932;4.442;2023-02-08T07:28:25;-1.60;99.90
22418;DHT22;11376;50.932;4.442;2023-02-08T07:30:51;-1.60;99.90
22418;DHT22;11376;50.932;4.442;2023-02-08T07:33:17;-1.60;99.90
22418;DHT22;11376;50.932;4.442;2023-02-08T07:35:43;-1.50;99.90
22418;DHT22;11376;50.932;4.442;2023-02-08T07:38:09;-1.50;99.90
22418;DHT22;11376;50.932;4.442;2023-02-08T07:40:35;-1.40;99.90
22418;DHT22;11376;50.932;4.442;2023-02-08T07:43:00;-1.30;99.90
22418;DHT22;11376;50.932;4.442;2023-02-08T07:45:26;-1.40;99.90
22418;DHT22;11376;50.932;4.442;2023-02-08T07:47:51;-1.20;99.90
22418;DHT22;11376;50.932;4.442;2023-02-08T07:50:17;-1.30;99.90
22418;DHT22;11376;50.932;4.442;2023-02-08T07:52:43;-1.30;99.90
22418;DHT22;11376;50.932;4.442;2023-02-08T07:55:11;-1.20;99.90
22418;DHT22;11376;50.932;4.442;2023-02-08T07:57:42;-1.10;99.90
22418;DHT22;11376;50.932;4.442;2023-02-08T08:00:08;-1.10;99.90
22418;DHT22;11376;50.932;4.442;2023-02-08T08:02:34;-1.00;99.90
22418;DHT22;11376;50.932;4.442;2023-02-08T08:04:59;-0.90;99.90
22418;DHT22;11376;50.932;4.442;2023-02-08T08:07:25;-0.90;99.90
22418;DHT22;11376;50.932;4.442;2023-02-08T08:09:50;-0.90;99.90
22418;DHT22;11376;50.932;4.442;2023-02-08T08:12:16;-0.70;99.90
22418;DHT22;11376;50.932;4.442;2023-02-08T08:14:42;-0.60;99.90
22418;DHT22;11376;50.932;4.442;2023-02-08T08:17:07;-0.60;99.90
22418;DHT22;11376;50.932;4.442;2023-02-08T08:19:33;-0.50;99.90
22418;DHT22;11376;50.932;4.442;2023-02-08T08:21:58;-0.40;99.90
22418;DHT22;11376;50.932;4.442;2023-02-08T08:24:24;-0.30;99.90
22418;DHT22;11376;50.932;4.442;2023-02-08T08:26:50;-0.30;99.90
22418;DHT22;11376;50.932;4.442;2023-02-08T08:29:15;-0.20;99.90
22418;DHT22;11376;50.932;4.442;2023-02-08T08:31:42;-0.20;99.90
22418;DHT22;11376;50.932;4.442;2023-02-08T08:34:08;-0.10;99.90
22418;DHT22;11376;50.932;4.442;2023-02-08T08:36:33;-0.10;99.90
22418;DHT22;11376;50.932;4.442;2023-02-08T08:38:59;0.00;99.90
22418;DHT22;11376;50.932;4.442;2023-02-08T08:41:24;0.20;99.90
22418;DHT22;11376;50.932;4.442;2023-02-08T08:43:52;0.30;99.90
22418;DHT22;11376;50.932;4.442;2023-02-08T08:46:18;0.40;99.90
22418;DHT22;11376;50.932;4.442;2023-02-08T08:48:44;0.50;99.90
22418;DHT22;11376;50.932;4.442;2023-02-08T08:51:10;0.60;99.90
22418;DHT22;11376;50.932;4.442;2023-02-08T08:53:36;0.70;99.90
22418;DHT22;11376;50.932;4.442;2023-02-08T08:56:02;0.90;99.90
22418;DHT22;11376;50.932;4.442;2023-02-08T08:58:28;0.90;99.90
22418;DHT22;11376;50.932;4.442;2023-02-08T09:00:56;1.10;99.90
22418;DHT22;11376;50.932;4.442;2023-02-08T09:03:23;1.20;99.90
22418;DHT22;11376;50.932;4.442;2023-02-08T09:05:49;1.30;99.90
22418;DHT22;11376;50.932;4.442;2023-02-08T09:08:15;1.40;99.90
22418;DHT22;11376;50.932;4.442;2023-02-08T09:10:40;1.50;99.90
22418;DHT22;11376;50.932;4.442;2023-02-08T09:13:06;1.70;99.90
22418;DHT22;11376;50.932;4.442;2023-02-08T09:15:32;1.80;99.90
22418;DHT22;11376;50.932;4.442;2023-02-08T09:17:58;1.90;99.90
22418;DHT22;11376;50.932;4.442;2023-02-08T09:20:23;2.00;99.90
22418;DHT22;11376;50.932;4.442;2023-02-08T09:22:49;2.10;99.90
22418;DHT22;11376;50.932;4.442;2023-02-08T09:25:15;2.20;99.90
22418;DHT22;11376;50.932;4.442;2023-02-08T09:27:41;2.30;99.90
22418;DHT22;11376;50.932;4.442;2023-02-08T09:30:07;2.40;99.90
22418;DHT22;11376;50.932;4.442;2023-02-08T09:32:33;2.50;99.90
22418;DHT22;11376;50.932;4.442;2023-02-08T09:34:59;2.70;99.90
22418;DHT22;11376;50.932;4.442;2023-02-08T09:37:26;2.70;99.90
22418;DHT22;11376;50.932;4.442;2023-02-08T09:39:52;2.80;99.90
22418;DHT22;11376;50.932;4.442;2023-02-08T09:42:42;2.90;99.90
22418;DHT22;11376;50.932;4.442;2023-02-08T09:45:19;3.00;99.90
22418;DHT22;11376;50.932;4.442;2023-02-08T09:50:41;3.20;99.90
22418;DHT22;11376;50.932;4.442;2023-02-08T09:53:35;3.40;99.90
22418;DHT22;11376;50.932;4.442;2023-02-08T09:56:08;3.60;99.90
22418;DHT22;11376;50.932;4.442;2023-02-08T09:58:51;3.90;99.90
22418;DHT22;11376;50.932;4.442;2023-02-08T10:01:27;4.10;99.90
22418;DHT22;11376;50.932;4.442;2023-02-08T10:04:43;4.40;99.90
22418;DHT22;11376;50.932;4.442;2023-02-08T10:06:40;4.60;99.90
22418;DHT22;11376;50.932;4.442;2023-02-08T10:09:10;4.90;99.90
22418;DHT22;11376;50.932;4.442;2023-02-08T10:11:53;5.10;99.90
22418;DHT22;11376;50.932;4.442;2023-02-08T10:33:31;9.80;99.90
22418;DHT22;11376;50.932;4.442;2023-02-08T10:36:01;10.50;99.30
22418;DHT22;11376;50.932;4.442;2023-02-08T10:38:30;11.80;94.80
22418;DHT22;11376;50.932;4.442;2023-02-08T10:41:01;13.20;92.10
22418;DHT22;11376;50.932;4.442;2023-02-08T10:49:14;16.10;63.70
22418;DHT22;11376;50.932;4.442;2023-02-08T10:51:37;18.20;55.40
22418;DHT22;11376;50.932;4.442;2023-02-08T10:54:04;19.90;47.80
22418;DHT22;11376;50.932;4.442;2023-02-08T10:56:41;21.10;45.40
22418;DHT22;11376;50.932;4.442;2023-02-08T10:59:17;22.50;38.70
22418;DHT22;11376;50.932;4.442;2023-02-08T11:01:45;23.20;35.40
22418;DHT22;11376;50.932;4.442;2023-02-08T11:04:13;23.60;34.60
22418;DHT22;11376;50.932;4.442;2023-02-08T11:06:41;24.00;34.00
22418;DHT22;11376;50.932;4.442;2023-02-08T11:09:22;24.80;32.70
22418;DHT22;11376;50.932;4.442;2023-02-08T11:11:49;24.70;32.60
22418;DHT22;11376;50.932;4.442;2023-02-08T11:14:19;24.80;32.70
22418;DHT22;11376;50.932;4.442;2023-02-08T11:16:55;24.20;33.70
22418;DHT22;11376;50.932;4.442;2023-02-08T11:19:34;23.60;33.40
22418;DHT22;11376;50.932;4.442;2023-02-08T11:22:01;23.70;35.70
22418;DHT22;11376;50.932;4.442;2023-02-08T11:24:37;24.00;32.40
22418;DHT22;11376;50.932;4.442;2023-02-08T11:27:32;24.30;32.00
22418;DHT22;11376;50.932;4.442;2023-02-08T11:32:45;25.70;30.40
22418;DHT22;11376;50.932;4.442;2023-02-08T11:35:19;26.50;28.80
22418;DHT22;11376;50.932;4.442;2023-02-08T11:37:53;26.30;29.40
22418;DHT22;11376;50.932;4.442;2023-02-08T11:40:22;26.50;28.70
22418;DHT22;11376;50.932;4.442;2023-02-08T11:42:49;26.00;28.80
22418;DHT22;11376;50.932;4.442;2023-02-08T11:45:41;26.00;28.30
22418;DHT22;11376;50.932;4.442;2023-02-08T11:49:04;26.40;27.70
22418;DHT22;11376;50.932;4.442;2023-02-08T11:51:05;26.40;27.20
22418;DHT22;11376;50.932;4.442;2023-02-08T11:53:38;26.70;26.20
22418;DHT22;11376;50.932;4.442;2023-02-08T11:58:41;27.60;24.50
22418;DHT22;11376;50.932;4.442;2023-02-08T12:01:19;26.50;24.00
22418;DHT22;11376;50.932;4.442;2023-02-08T12:03:46;27.20;24.20
22418;DHT22;11376;50.932;4.442;2023-02-08T12:12:12;29.20;21.50
22418;DHT22;11376;50.932;4.442;2023-02-08T12:14:58;28.40;22.00
22418;DHT22;11376;50.932;4.442;2023-02-08T12:22:28;27.00;21.10
22418;DHT22;11376;50.932;4.442;2023-02-08T12:25:19;27.60;20.60
22418;DHT22;11376;50.932;4.442;2023-02-08T12:34:04;28.40;20.10
22418;DHT22;11376;50.932;4.442;2023-02-08T12:37:01;27.40;20.20
22418;DHT22;11376;50.932;4.442;2023-02-08T12:43:16;27.60;19.90
22418;DHT22;11376;50.932;4.442;2023-02-08T12:51:35;28.20;20.40
22418;DHT22;11376;50.932;4.442;2023-02-08T12:57:21;26.30;21.80
22418;DHT22;11376;50.932;4.442;2023-02-08T12:59:52;27.20;20.70
22418;DHT22;11376;50.932;4.442;2023-02-08T13:02:39;26.10;21.40
22418;DHT22;11376;50.932;4.442;2023-02-08T13:05:16;27.20;21.20
22418;DHT22;11376;50.932;4.442;2023-02-08T13:07:44;27.80;20.50
22418;DHT22;11376;50.932;4.442;2023-02-08T13:10:54;28.60;20.00
22418;DHT22;11376;50.932;4.442;2023-02-08T13:15:51;28.20;20.00
22418;DHT22;11376;50.932;4.442;2023-02-08T13:18:21;28.00;20.20
22418;DHT22;11376;50.932;4.442;2023-02-08T13:20:55;27.20;19.90
22418;DHT22;11376;50.932;4.442;2023-02-08T13:23:36;27.10;21.20
22418;DHT22;11376;50.932;4.442;2023-02-08T13:26:07;27.40;21.10
22418;DHT22;11376;50.932;4.442;2023-02-08T13:28:33;27.80;21.20
22418;DHT22;11376;50.932;4.442;2023-02-08T13:31:12;28.40;20.90
22418;DHT22;11376;50.932;4.442;2023-02-08T13:33:48;26.70;21.50
22418;DHT22;11376;50.932;4.442;2023-02-08T13:36:33;26.40;22.00
22418;DHT22;11376;50.932;4.442;2023-02-08T13:39:04;27.00;21.70
22418;DHT22;11376;50.932;4.442;2023-02-08T13:41:31;26.90;21.80
22418;DHT22;11376;50.932;4.442;2023-02-08T13:43:59;27.70;21.00
22418;DHT22;11376;50.932;4.442;2023-02-08T13:46:27;28.30;20.90
22418;DHT22;11376;50.932;4.442;2023-02-08T13:48:58;27.60;21.20
22418;DHT22;11376;50.932;4.442;2023-02-08T13:56:44;27.50;20.20
22418;DHT22;11376;50.932;4.442;2023-02-08T13:59:37;27.30;21.10
22418;DHT22;11376;50.932;4.442;2023-02-08T14:12:45;23.30;23.70
22418;DHT22;11376;50.932;4.442;2023-02-08T14:17:47;24.00;22.90
22418;DHT22;11376;50.932;4.442;2023-02-08T14:22:55;24.10;23.20
22418;DHT22;11376;50.932;4.442;2023-02-08T14:25:26;23.20;24.40
22418;DHT22;11376;50.932;4.442;2023-02-08T14:27:57;23.10;24.70
22418;DHT22;11376;50.932;4.442;2023-02-08T14:30:36;23.40;25.50
22418;DHT22;11376;50.932;4.442;2023-02-08T14:35:33;23.00;24.90
22418;DHT22;11376;50.932;4.442;2023-02-08T14:41:53;22.90;25.10
22418;DHT22;11376;50.932;4.442;2023-02-08T14:49:51;22.90;24.20
22418;DHT22;11376;50.932;4.442;2023-02-08T14:52:22;22.10;25.90
22418;DHT22;11376;50.932;4.442;2023-02-08T14:55:12;21.60;25.50
22418;DHT22;11376;50.932;4.442;2023-02-08T14:57:40;21.70;24.90
22418;DHT22;11376;50.932;4.442;2023-02-08T15:00:18;20.60;27.60
22418;DHT22;11376;50.932;4.442;2023-02-08T15:02:45;20.50;27.20
22418;DHT22;11376;50.932;4.442;2023-02-08T15:05:40;20.50;27.00
22418;DHT22;11376;50.932;4.442;2023-02-08T15:08:07;20.90;26.20
22418;DHT22;11376;50.932;4.442;2023-02-08T15:10:33;21.20;26.40
22418;DHT22;11376;50.932;4.442;2023-02-08T15:13:03;21.40;25.80
22418;DHT22;11376;50.932;4.442;2023-02-08T15:15:33;21.40;26.20
22418;DHT22;11376;50.932;4.442;2023-02-08T15:18:01;21.90;25.80
22418;DHT22;11376;50.932;4.442;2023-02-08T15:20:30;21.70;26.00
22418;DHT22;11376;50.932;4.442;2023-02-08T15:27:55;20.50;26.80
22418;DHT22;11376;50.932;4.442;2023-02-08T15:30:34;20.20;27.00
22418;DHT22;11376;50.932;4.442;2023-02-08T15:33:02;19.80;27.50
22418;DHT22;11376;50.932;4.442;2023-02-08T15:35:33;19.90;27.80
22418;DHT22;11376;50.932;4.442;2023-02-08T15:38:00;20.10;28.00
22418;DHT22;11376;50.932;4.442;2023-02-08T15:40:31;20.00;27.90
22418;DHT22;11376;50.932;4.442;2023-02-08T15:43:11;20.00;27.70
22418;DHT22;11376;50.932;4.442;2023-02-08T15:45:37;19.20;28.60
22418;DHT22;11376;50.932;4.442;2023-02-08T15:48:05;18.40;28.40
22418;DHT22;11376;50.932;4.442;2023-02-08T15:50:31;17.10;30.00
22418;DHT22;11376;50.932;4.442;2023-02-08T15:53:01;15.70;31.80
22418;DHT22;11376;50.932;4.442;2023-02-08T15:55:43;15.00;32.60
22418;DHT22;11376;50.932;4.442;2023-02-08T15:58:38;14.00;34.20
22418;DHT22;11376;50.932;4.442;2023-02-08T16:01:06;13.50;34.80
22418;DHT22;11376;50.932;4.442;2023-02-08T16:03:32;12.80;36.50
22418;DHT22;11376;50.932;4.442;2023-02-08T16:06:04;12.60;37.80
22418;DHT22;11376;50.932;4.442;2023-02-08T16:08:33;12.30;37.60
22418;DHT22;11376;50.932;4.442;2023-02-08T16:10:59;12.00;38.20
22418;DHT22;11376;50.932;4.442;2023-02-08T16:13:34;11.60;38.80
22418;DHT22;11376;50.932;4.442;2023-02-08T16:16:17;11.40;39.80
22418;DHT22;11376;50.932;4.442;2023-02-08T16:18:58;10.90;40.30
22418;DHT22;11376;50.932;4.442;2023-02-08T16:23:59;10.30;42.10
22418;DHT22;11376;50.932;4.442;2023-02-08T16:26:26;10.10;43.30
22418;DHT22;11376;50.932;4.442;2023-02-08T16:28:58;9.90;43.80
22418;DHT22;11376;50.932;4.442;2023-02-08T16:31:26;9.70;44.10
22418;DHT22;11376;50.932;4.442;2023-02-08T16:34:06;9.60;44.60
22418;DHT22;11376;50.932;4.442;2023-02-08T16:36:42;9.50;45.20
22418;DHT22;11376;50.932;4.442;2023-02-08T16:41:57;9.00;46.00
22418;DHT22;11376;50.932;4.442;2023-02-08T16:44:29;8.80;46.70
22418;DHT22;11376;50.932;4.442;2023-02-08T16:46:56;8.60;46.90
22418;DHT22;11376;50.932;4.442;2023-02-08T16:49:22;8.40;48.00
22418;DHT22;11376;50.932;4.442;2023-02-08T16:51:48;8.30;48.90
22418;DHT22;11376;50.932;4.442;2023-02-08T16:54:17;8.10;50.20
22418;DHT22;11376;50.932;4.442;2023-02-08T16:56:44;8.00;51.00
22418;DHT22;11376;50.932;4.442;2023-02-08T16:59:15;7.90;50.90
22418;DHT22;11376;50.932;4.442;2023-02-08T17:01:41;7.80;51.00
22418;DHT22;11376;50.932;4.442;2023-02-08T17:04:10;7.80;50.10
22418;DHT22;11376;50.932;4.442;2023-02-08T17:06:37;7.60;50.90
22418;DHT22;11376;50.932;4.442;2023-02-08T17:09:05;7.50;50.50
22418;DHT22;11376;50.932;4.442;2023-02-08T17:11:32;7.20;52.00
22418;DHT22;11376;50.932;4.442;2023-02-08T17:13:58;7.10;56.10
22418;DHT22;11376;50.932;4.442;2023-02-08T17:16:26;7.10;55.50
22418;DHT22;11376;50.932;4.442;2023-02-08T17:18:52;6.90;56.30
22418;DHT22;11376;50.932;4.442;2023-02-08T17:21:18;6.70;57.70
22418;DHT22;11376;50.932;4.442;2023-02-08T17:23:44;6.60;59.40
22418;DHT22;11376;50.932;4.442;2023-02-08T17:26:17;6.40;60.40
22418;DHT22;11376;50.932;4.442;2023-02-08T17:28:45;6.30;62.60
22418;DHT22;11376;50.932;4.442;2023-02-08T17:31:11;6.20;64.70
22418;DHT22;11376;50.932;4.442;2023-02-08T17:33:38;6.00;66.30
22418;DHT22;11376;50.932;4.442;2023-02-08T17:36:05;5.90;68.10
22418;DHT22;11376;50.932;4.442;2023-02-08T17:38:31;5.80;69.10
22418;DHT22;11376;50.932;4.442;2023-02-08T17:40:57;5.70;70.90
22418;DHT22;11376;50.932;4.442;2023-02-08T17:43:24;5.60;72.70
22418;DHT22;11376;50.932;4.442;2023-02-08T17:45:50;5.40;73.60
22418;DHT22;11376;50.932;4.442;2023-02-08T17:48:16;5.30;76.30
22418;DHT22;11376;50.932;4.442;2023-02-08T17:50:43;5.20;78.50
22418;DHT22;11376;50.932;4.442;2023-02-08T17:53:12;5.10;81.10
22418;DHT22;11376;50.932;4.442;2023-02-08T17:55:40;5.10;82.20
22418;DHT22;11376;50.932;4.442;2023-02-08T17:58:06;5.00;83.50
22418;DHT22;11376;50.932;4.442;2023-02-08T18:00:33;4.90;86.40
22418;DHT22;11376;50.932;4.442;2023-02-08T18:02:59;4.80;88.40
22418;DHT22;11376;50.932;4.442;2023-02-08T18:05:26;4.80;90.00
22418;DHT22;11376;50.932;4.442;2023-02-08T18:07:53;4.70;90.50
22418;DHT22;11376;50.932;4.442;2023-02-08T18:10:19;4.60;91.20
22418;DHT22;11376;50.932;4.442;2023-02-08T18:12:45;4.60;92.60